createdAt,value
2023-01-01T00:00:18.796Z,9.96
2023-01-01T00:03:05.970Z,10.01
2023-01-01T00:05:33.000Z,9.94
2023-01-01T00:08:04.540Z,9.95
2023-01-01T00:10:32.552Z,9.98
2023-01-01T00:13:00.546Z,9.98
2023-01-01T00:15:28.241Z,10.01
2023-01-01T00:17:55.766Z,10.00
2023-01-01T00:20:22.746Z,9.94
2023-01-01T00:22:55.000Z,9.99
2023-01-01T00:25:22.987Z,10.00
2023-01-01T00:27:50.545Z,9.97
2023-01-01T00:30:17.645Z,9.95
2023-01-01T00:32:54.657Z,9.93
2023-01-01T00:35:25.606Z,9.91
2023-01-01T00:37:53.821Z,9.86
2023-01-01T00:40:20.792Z,9.90
2023-01-01T00:42:48.117Z,9.88
2023-01-01T00:45:20.863Z,9.94
2023-01-01T00:47:49.624Z,9.96
2023-01-01T00:50:16.718Z,9.91
2023-01-01T00:52:44.248Z,9.92
2023-01-01T00:55:11.896Z,9.97
2023-01-01T00:57:39.107Z,10.02
2023-01-01T01:00:06.755Z,9.97
2023-01-01T01:02:35.010Z,9.92
2023-01-01T01:05:03.714Z,9.92
2023-01-01T01:07:37.850Z,9.82
2023-01-01T01:10:05.499Z,9.90
2023-01-01T01:12:35.335Z,9.97
2023-01-01T01:15:03.309Z,10.02
2023-01-01T01:17:30.707Z,10.11
2023-01-01T01:19:57.627Z,10.08
2023-01-01T01:22:28.562Z,10.07
2023-01-01T01:24:56.108Z,10.08
2023-01-01T01:27:24.070Z,10.05
2023-01-01T01:29:51.036Z,10.09
2023-01-01T01:32:18.311Z,10.10
2023-01-01T01:34:45.554Z,10.13
2023-01-01T01:37:12.994Z,10.15
2023-01-01T01:39:40.216Z,10.19
2023-01-01T01:42:07.476Z,10.20
2023-01-01T01:44:46.712Z,10.19
2023-01-01T01:47:45.056Z,10.24
2023-01-01T01:50:19.898Z,10.23
2023-01-01T01:53:13.293Z,10.29
2023-01-01T01:55:45.432Z,10.32
2023-01-01T01:58:14.975Z,10.32
2023-01-01T02:00:42.071Z,10.27
2023-01-01T02:03:21.821Z,10.30
2023-01-01T02:05:51.356Z,10.30
2023-01-01T02:08:19.682Z,10.35
2023-01-01T02:10:46.723Z,10.44
2023-01-01T02:13:14.158Z,10.36
2023-01-01T02:16:13.783Z,10.35
2023-01-01T02:19:29.962Z,10.35
2023-01-01T02:22:07.969Z,10.39
2023-01-01T02:25:12.883Z,10.46
2023-01-01T02:27:54.788Z,10.46
2023-01-01T02:30:22.415Z,10.52
2023-01-01T02:32:57.455Z,10.58
2023-01-01T02:35:59.157Z,10.53
2023-01-01T02:38:43.264Z,10.58
2023-01-01T02:41:19.501Z,10.61
2023-01-01T02:43:46.669Z,10.59
2023-01-01T02:48:47.410Z,10.58
2023-01-01T02:54:18.890Z,10.58
2023-01-01T02:56:59.498Z,10.57
2023-01-01T03:00:08.857Z,10.51
2023-01-01T03:02:51.156Z,10.50
2023-01-01T03:05:59.859Z,10.46
2023-01-01T03:08:51.653Z,10.45
2023-01-01T03:11:21.308Z,10.49
2023-01-01T03:14:03.732Z,10.42
2023-01-01T03:16:36.666Z,10.47
2023-01-01T03:19:11.135Z,10.44
2023-01-01T03:21:52.183Z,10.46
2023-01-01T03:24:27.793Z,10.49
2023-01-01T03:26:58.454Z,10.56
2023-01-01T03:29:30.381Z,10.54
2023-01-01T03:32:00.121Z,10.52
2023-01-01T03:34:34.127Z,10.49
2023-01-01T03:37:06.911Z,10.48
2023-01-01T03:39:38.861Z,10.50
2023-01-01T03:42:31.442Z,10.52
2023-01-01T03:45:04.371Z,10.55
2023-01-01T03:47:31.555Z,10.54
2023-01-01T03:49:59.986Z,10.56
2023-01-01T03:52:48.849Z,10.57
2023-01-01T03:55:37.074Z,10.54
2023-01-01T03:58:15.101Z,10.54
2023-01-01T04:01:01.776Z,10.57
2023-01-01T04:03:31.349Z,10.55
2023-01-01T04:05:58.631Z,10.57
2023-01-01T04:08:25.806Z,10.53
2023-01-01T04:10:57.395Z,10.51
2023-01-01T04:13:24.299Z,10.54
2023-01-01T04:15:51.989Z,10.58
2023-01-01T04:18:18.943Z,10.67
2023-01-01T04:20:46.151Z,10.71
2023-01-01T04:23:13.112Z,10.73
2023-01-01T04:25:40.376Z,10.72
2023-01-01T04:28:07.315Z,10.74
2023-01-01T04:33:00.299Z,10.76
2023-01-01T04:35:27.586Z,10.74
2023-01-01T04:37:54.722Z,10.80
2023-01-01T04:40:21.982Z,10.77
2023-01-01T04:42:48.875Z,10.77
2023-01-01T04:45:16.295Z,10.86
2023-01-01T04:47:43.510Z,10.85
2023-01-01T04:50:11.149Z,10.89
2023-01-01T04:52:38.211Z,10.97
2023-01-01T04:55:05.913Z,10.99
2023-01-01T04:57:33.339Z,11.03
2023-01-01T05:00:00.646Z,11.04
2023-01-01T05:02:27.790Z,11.10
2023-01-01T05:04:55.391Z,11.08
2023-01-01T05:07:22.388Z,11.09
2023-01-01T05:09:49.644Z,11.15
2023-01-01T05:12:16.611Z,11.20
2023-01-01T05:14:43.896Z,11.18
2023-01-01T05:17:10.805Z,11.17
2023-01-01T05:19:38.071Z,11.15
2023-01-01T05:22:10.428Z,11.13
2023-01-01T05:24:38.288Z,11.11
2023-01-01T05:27:05.447Z,11.09
2023-01-01T05:29:32.633Z,11.08
2023-01-01T05:31:59.667Z,11.05
2023-01-01T05:36:54.728Z,11.10
2023-01-01T05:39:21.953Z,11.09
2023-01-01T05:41:48.973Z,10.99
2023-01-01T05:44:17.476Z,10.93
2023-01-01T05:46:44.640Z,10.91
2023-01-01T05:49:12.805Z,10.90
2023-01-01T05:54:06.363Z,10.88
2023-01-01T05:56:33.747Z,10.89
2023-01-01T05:59:01.024Z,10.88
2023-01-01T06:01:30.549Z,10.93
2023-01-01T06:03:59.821Z,10.91
2023-01-01T06:06:30.166Z,10.94
2023-01-01T06:09:00.727Z,10.97
2023-01-01T06:11:29.037Z,10.98
2023-01-01T06:13:58.982Z,10.98
2023-01-01T06:16:26.713Z,10.92
2023-01-01T06:18:54.175Z,10.90
2023-01-01T06:21:23.780Z,10.95
2023-01-01T06:23:51.338Z,10.99
2023-01-01T06:26:24.222Z,11.02
2023-01-01T06:28:52.048Z,11.08
2023-01-01T06:31:21.670Z,11.10
2023-01-01T06:33:50.922Z,11.07
2023-01-01T06:36:20.128Z,11.11
2023-01-01T06:38:49.889Z,11.13
2023-01-01T06:41:19.916Z,11.15
2023-01-01T06:43:47.785Z,11.23
2023-01-01T06:46:21.829Z,11.22
2023-01-01T06:48:52.911Z,11.27
2023-01-01T06:51:22.849Z,11.30
2023-01-01T06:53:51.173Z,11.31
2023-01-01T06:56:18.681Z,11.31
2023-01-01T06:58:46.388Z,11.33
2023-01-01T07:01:24.562Z,11.34
2023-01-01T07:04:03.330Z,11.35
2023-01-01T07:06:32.054Z,11.39
2023-01-01T07:08:59.383Z,11.40
2023-01-01T07:11:27.199Z,11.40
2023-01-01T07:13:54.730Z,11.43
2023-01-01T07:16:22.659Z,11.44
2023-01-01T07:18:50.767Z,11.46
2023-01-01T07:21:34.615Z,11.53
2023-01-01T07:24:04.477Z,11.58
2023-01-01T07:26:33.021Z,11.64
2023-01-01T07:29:06.823Z,11.72
2023-01-01T07:31:39.946Z,11.82
2023-01-01T07:34:11.896Z,11.90
2023-01-01T07:36:38.903Z,11.96
2023-01-01T07:39:06.229Z,12.09
2023-01-01T07:41:33.223Z,12.18
2023-01-01T07:44:00.673Z,12.44
2023-01-01T07:46:28.085Z,12.52
2023-01-01T07:48:55.366Z,12.64
2023-01-01T07:51:22.341Z,12.66
2023-01-01T07:53:49.648Z,12.67
2023-01-01T07:56:16.821Z,12.58
2023-01-01T07:58:44.094Z,12.54
2023-01-01T08:01:13.246Z,12.52
2023-01-01T08:03:41.024Z,12.55
2023-01-01T08:06:13.240Z,12.52
2023-01-01T08:08:41.361Z,12.43
2023-01-01T08:11:08.708Z,12.41
2023-01-01T08:13:36.305Z,12.38
2023-01-01T08:16:05.036Z,12.34
2023-01-01T08:18:32.352Z,12.37
2023-01-01T08:20:59.327Z,12.41
2023-01-01T08:23:26.645Z,12.43
2023-01-01T08:25:53.617Z,12.43
2023-01-01T08:28:20.950Z,12.54
2023-01-01T08:30:47.939Z,12.65
2023-01-01T08:33:15.278Z,12.75
2023-01-01T08:35:44.124Z,12.94
2023-01-01T08:38:13.197Z,12.89
2023-01-01T08:40:40.495Z,12.85
2023-01-01T08:43:07.894Z,12.77
2023-01-01T08:45:34.840Z,12.73
2023-01-01T08:48:02.236Z,12.70
2023-01-01T08:50:29.279Z,12.68
2023-01-01T08:52:58.571Z,12.65
2023-01-01T08:55:25.734Z,12.66
2023-01-01T08:57:53.025Z,12.59
2023-01-01T09:00:20.053Z,12.60
2023-01-01T09:02:47.468Z,12.51
2023-01-01T09:05:14.656Z,12.46
2023-01-01T09:07:41.939Z,12.46
2023-01-01T09:10:09.205Z,12.43
2023-01-01T09:12:36.525Z,12.41
2023-01-01T09:15:03.921Z,12.45
2023-01-01T09:17:31.268Z,12.47
2023-01-01T09:19:58.224Z,12.55
2023-01-01T09:22:25.480Z,12.59
2023-01-01T09:24:52.465Z,12.68
2023-01-01T09:27:19.742Z,12.69
2023-01-01T09:29:46.749Z,12.83
2023-01-01T09:32:13.999Z,12.87
2023-01-01T09:34:41.022Z,12.86
2023-01-01T09:37:08.236Z,12.87
2023-01-01T09:39:35.243Z,12.89
2023-01-01T09:42:19.208Z,13.02
2023-01-01T09:45:16.101Z,13.05
2023-01-01T09:47:47.355Z,13.08
2023-01-01T09:50:23.693Z,13.32
2023-01-01T09:53:03.036Z,13.28
2023-01-01T09:55:47.832Z,13.18
2023-01-01T09:58:15.503Z,13.10
2023-01-01T10:00:46.956Z,13.06
2023-01-01T10:03:22.862Z,13.06
2023-01-01T10:05:54.142Z,13.21
2023-01-01T10:08:50.912Z,13.27
2023-01-01T10:11:49.459Z,13.66
2023-01-01T10:14:23.707Z,14.35
2023-01-01T10:16:55.813Z,15.12
2023-01-01T10:19:41.776Z,15.78
2023-01-01T10:22:15.186Z,16.06
2023-01-01T10:24:57.526Z,15.99
2023-01-01T10:27:28.552Z,15.88
2023-01-01T10:30:03.258Z,15.96
2023-01-01T10:32:34.084Z,16.10
2023-01-01T10:35:04.049Z,16.23
2023-01-01T10:37:37.133Z,16.15
2023-01-01T10:40:15.116Z,16.18
2023-01-01T10:42:42.076Z,16.07
2023-01-01T10:45:15.682Z,15.77
2023-01-01T10:48:14.236Z,15.50
2023-01-01T10:50:52.155Z,15.39
2023-01-01T10:53:24.012Z,15.25
2023-01-01T10:56:03.282Z,15.29
2023-01-01T10:58:59.449Z,15.55
2023-01-01T11:01:34.312Z,15.37
2023-01-01T11:04:07.869Z,15.43
2023-01-01T11:06:37.536Z,15.50
2023-01-01T11:09:20.007Z,15.67
2023-01-01T11:11:54.613Z,15.87
2023-01-01T11:14:44.261Z,15.79
2023-01-01T11:17:11.546Z,15.93
2023-01-01T11:19:45.712Z,16.18
2023-01-01T11:22:39.188Z,16.20
2023-01-01T11:25:28.281Z,15.97
2023-01-01T11:28:22.021Z,15.61
2023-01-01T11:30:59.550Z,15.12
2023-01-01T11:33:30.093Z,14.81
2023-01-01T11:35:57.201Z,14.66
2023-01-01T11:38:29.916Z,14.48
2023-01-01T11:41:04.856Z,14.46
2023-01-01T11:43:40.496Z,14.52
2023-01-01T11:46:10.694Z,14.69
2023-01-01T11:48:42.824Z,15.06
2023-01-01T11:51:27.619Z,14.98
2023-01-01T11:54:09.616Z,14.63
2023-01-01T11:56:37.077Z,14.67
2023-01-01T11:59:15.982Z,15.00
2023-01-01T12:01:53.892Z,14.86
2023-01-01T12:04:43.597Z,14.44
2023-01-01T12:07:16.029Z,14.62
2023-01-01T12:10:02.273Z,15.09
2023-01-01T12:12:38.636Z,15.44
2023-01-01T12:15:14.361Z,15.67
2023-01-01T12:17:47.620Z,15.82
2023-01-01T12:20:32.587Z,15.97
2023-01-01T12:23:00.388Z,16.16
2023-01-01T12:25:41.098Z,16.35
2023-01-01T12:28:10.752Z,16.24
2023-01-01T12:30:59.161Z,16.20
2023-01-01T12:34:10.882Z,16.43
2023-01-01T12:36:40.886Z,16.36
2023-01-01T12:39:10.448Z,16.47
2023-01-01T12:41:52.890Z,16.31
2023-01-01T12:44:53.801Z,16.30
2023-01-01T12:48:08.351Z,16.32
2023-01-01T12:50:56.007Z,16.47
2023-01-01T12:53:36.880Z,16.40
2023-01-01T12:56:23.334Z,16.19
2023-01-01T12:58:58.297Z,16.15
2023-01-01T13:01:34.041Z,16.13
2023-01-01T13:04:05.785Z,15.91
2023-01-01T13:06:35.976Z,15.75
2023-01-01T13:09:11.042Z,15.61
2023-01-01T13:11:44.922Z,15.63
2023-01-01T13:14:13.429Z,15.63
2023-01-01T13:16:42.443Z,15.62
2023-01-01T13:19:24.603Z,15.46
2023-01-01T13:21:51.630Z,15.53
2023-01-01T13:24:24.630Z,15.43
2023-01-01T13:26:52.926Z,15.13
2023-01-01T13:29:20.139Z,14.80
2023-01-01T13:31:47.817Z,14.42
2023-01-01T13:34:30.563Z,14.00
2023-01-01T13:37:17.361Z,13.71
2023-01-01T13:40:00.842Z,13.52
2023-01-01T13:42:43.403Z,13.34
2023-01-01T13:46:00.779Z,13.35
2023-01-01T13:48:26.403Z,13.28
2023-01-01T13:52:02.938Z,13.36
2023-01-01T13:54:35.530Z,13.64
2023-01-01T13:57:47.370Z,13.66
2023-01-01T14:00:20.569Z,13.66
2023-01-01T14:03:02.977Z,13.66
2023-01-01T14:05:30.124Z,13.60
2023-01-01T14:07:57.863Z,13.52
2023-01-01T14:10:31.920Z,13.44
2023-01-01T14:13:08.623Z,13.39
2023-01-01T14:15:44.738Z,13.24
2023-01-01T14:18:15.380Z,13.20
2023-01-01T14:20:49.146Z,13.06
2023-01-01T14:23:34.468Z,12.88
2023-01-01T14:26:06.661Z,12.84
2023-01-01T14:28:35.885Z,12.76
2023-01-01T14:31:12.493Z,12.68
2023-01-01T14:33:40.089Z,12.63
2023-01-01T14:36:16.029Z,12.61
2023-01-01T14:38:45.763Z,12.56
2023-01-01T14:41:35.718Z,12.44
2023-01-01T14:44:07.160Z,12.39
2023-01-01T14:46:39.826Z,12.28
2023-01-01T14:49:14.682Z,12.19
2023-01-01T14:51:46.056Z,12.16
2023-01-01T14:54:22.661Z,12.10
2023-01-01T14:56:51.486Z,12.11
2023-01-01T14:59:26.755Z,12.07
2023-01-01T15:02:02.581Z,12.06
2023-01-01T15:04:30.899Z,12.03
2023-01-01T15:07:00.400Z,11.96
2023-01-01T15:09:28.817Z,11.88
2023-01-01T15:11:57.064Z,11.87
2023-01-01T15:14:45.871Z,11.83
2023-01-01T15:17:21.625Z,11.74
2023-01-01T15:20:23.344Z,11.63
2023-01-01T15:22:52.318Z,11.63
2023-01-01T15:25:19.923Z,11.64
2023-01-01T15:27:52.440Z,11.57
2023-01-01T15:30:38.312Z,11.56
2023-01-01T15:33:08.632Z,11.62
2023-01-01T15:35:38.262Z,11.59
2023-01-01T15:38:22.773Z,11.56
2023-01-01T15:40:53.546Z,11.57
2023-01-01T15:43:25.926Z,11.51
2023-01-01T15:46:10.948Z,11.52
2023-01-01T15:48:48.429Z,11.54
2023-01-01T15:51:22.951Z,11.55
2023-01-01T15:53:51.976Z,11.53
2023-01-01T15:56:20.284Z,11.47
2023-01-01T15:58:50.153Z,11.49
2023-01-01T16:01:23.397Z,11.52
2023-01-01T16:03:53.630Z,11.54
2023-01-01T16:06:23.127Z,11.55
2023-01-01T16:08:50.073Z,11.55
2023-01-01T16:11:17.285Z,11.56
2023-01-01T16:13:44.153Z,11.58
2023-01-01T16:16:27.955Z,11.54
2023-01-01T16:18:56.531Z,11.52
2023-01-01T16:21:32.940Z,11.50
2023-01-01T16:24:00.060Z,11.47
2023-01-01T16:26:27.482Z,11.45
2023-01-01T16:28:54.328Z,11.39
2023-01-01T16:31:28.735Z,11.37
2023-01-01T16:33:58.012Z,11.37
2023-01-01T16:36:29.448Z,11.36
2023-01-01T16:38:57.320Z,11.45
2023-01-01T16:41:25.700Z,11.44
2023-01-01T16:43:52.891Z,11.47
2023-01-01T16:46:19.953Z,11.51
2023-01-01T16:48:47.158Z,11.49
2023-01-01T16:51:20.327Z,11.47
2023-01-01T16:53:47.666Z,11.47
2023-01-01T16:56:15.073Z,11.44
2023-01-01T16:58:52.992Z,11.45
2023-01-01T17:01:22.499Z,11.42
2023-01-01T17:03:50.366Z,11.38
2023-01-01T17:06:17.929Z,11.39
2023-01-01T17:08:45.150Z,11.40
2023-01-01T17:11:17.583Z,11.41
2023-01-01T17:13:46.949Z,11.41
2023-01-01T17:16:19.382Z,11.37
2023-01-01T17:21:39.216Z,11.33
2023-01-01T17:24:07.045Z,11.29
2023-01-01T17:26:34.259Z,11.30
2023-01-01T17:29:03.077Z,11.29
2023-01-01T17:31:30.800Z,11.28
2023-01-01T17:33:58.238Z,11.24
2023-01-01T17:36:27.539Z,11.25
2023-01-01T17:38:55.442Z,11.25
2023-01-01T17:41:22.812Z,11.26
2023-01-01T17:43:51.765Z,11.19
2023-01-01T17:46:31.037Z,11.21
2023-01-01T17:48:59.539Z,11.21
2023-01-01T17:51:26.918Z,11.19
2023-01-01T17:53:55.069Z,11.17
2023-01-01T17:56:23.300Z,11.13
2023-01-01T17:58:52.362Z,11.07
2023-01-01T18:01:19.317Z,11.09
2023-01-01T18:03:46.696Z,11.11
2023-01-01T18:06:13.587Z,11.11
2023-01-01T18:08:40.983Z,11.16
2023-01-01T18:11:07.898Z,11.17
2023-01-01T18:13:36.088Z,11.13
2023-01-01T18:16:04.791Z,11.13
2023-01-01T18:18:32.502Z,11.08
2023-01-01T18:21:11.738Z,11.08
2023-01-01T18:23:39.916Z,11.16
2023-01-01T18:26:10.237Z,11.13
2023-01-01T18:28:38.712Z,11.03
2023-01-01T18:31:09.549Z,11.03
2023-01-01T18:33:37.095Z,11.05
2023-01-01T18:36:12.603Z,10.99
2023-01-01T18:38:41.401Z,10.97
2023-01-01T18:41:14.169Z,10.98
2023-01-01T18:43:41.449Z,11.02
2023-01-01T18:46:09.972Z,11.02
2023-01-01T18:48:37.486Z,11.01
2023-01-01T18:51:24.575Z,11.00
2023-01-01T18:53:58.438Z,11.05
2023-01-01T18:56:25.734Z,11.02
2023-01-01T18:58:57.024Z,11.09
2023-01-01T19:01:24.837Z,11.10
2023-01-01T19:03:56.326Z,11.17
2023-01-01T19:06:32.243Z,11.21
2023-01-01T19:09:17.679Z,11.28
2023-01-01T19:11:44.611Z,11.29
2023-01-01T19:14:27.328Z,11.32
2023-01-01T19:16:58.524Z,11.34
2023-01-01T19:19:29.594Z,11.38
2023-01-01T19:22:15.189Z,11.38
2023-01-01T19:24:44.075Z,11.39
2023-01-01T19:27:17.828Z,11.42
2023-01-01T19:29:48.101Z,11.42
2023-01-01T19:32:15.259Z,11.47
2023-01-01T19:34:42.721Z,11.46
2023-01-01T19:37:10.645Z,11.45
2023-01-01T19:39:38.976Z,11.44
2023-01-01T19:42:07.132Z,11.46
2023-01-01T19:44:36.932Z,11.40
2023-01-01T19:47:09.213Z,11.35
2023-01-01T19:49:36.447Z,11.38
2023-01-01T19:52:03.762Z,11.39
2023-01-01T19:54:31.014Z,11.35
2023-01-01T19:56:57.890Z,11.40
2023-01-01T19:59:32.671Z,11.41
2023-01-01T20:02:34.811Z,11.40
2023-01-01T20:04:47.828Z,11.40
2023-01-01T20:07:15.340Z,11.42
2023-01-01T20:09:42.606Z,11.43
2023-01-01T20:12:09.467Z,11.40
2023-01-01T20:14:36.691Z,11.40
2023-01-01T20:17:03.773Z,11.37
2023-01-01T20:19:30.945Z,11.35
2023-01-01T20:22:14.340Z,11.35
2023-01-01T20:24:42.570Z,11.38
2023-01-01T20:27:10.242Z,11.43
2023-01-01T20:29:38.066Z,11.39
2023-01-01T20:32:06.257Z,11.39
2023-01-01T20:34:33.503Z,11.41
2023-01-01T20:37:19.387Z,11.40
2023-01-01T20:39:46.721Z,11.37
2023-01-01T20:42:13.635Z,11.38
2023-01-01T20:44:43.294Z,11.37
2023-01-01T20:47:14.186Z,11.35
2023-01-01T20:49:41.985Z,11.33
2023-01-01T20:52:09.006Z,11.35
2023-01-01T20:54:36.231Z,11.32
2023-01-01T20:57:03.411Z,11.34
2023-01-01T20:59:36.357Z,11.32
2023-01-01T21:02:08.615Z,11.27
2023-01-01T21:04:39.008Z,11.23
2023-01-01T21:07:11.122Z,11.27
2023-01-01T21:09:39.568Z,11.29
2023-01-01T21:12:07.570Z,11.32
2023-01-01T21:14:35.476Z,11.38
2023-01-01T21:17:17.581Z,11.31
2023-01-01T21:19:45.020Z,11.38
2023-01-01T21:22:13.020Z,11.35
2023-01-01T21:24:40.358Z,11.35
2023-01-01T21:27:16.873Z,11.29
2023-01-01T21:29:46.899Z,11.30
2023-01-01T21:32:28.965Z,11.30
2023-01-01T21:34:56.273Z,11.32
2023-01-01T21:37:47.952Z,11.35
2023-01-01T21:40:32.845Z,11.33
2023-01-01T21:43:13.981Z,11.38
2023-01-01T21:45:45.722Z,11.41
2023-01-01T21:48:27.724Z,11.36
2023-01-01T21:50:55.876Z,11.30
2023-01-01T21:53:27.370Z,11.28
2023-01-01T21:55:56.537Z,11.31
2023-01-01T21:58:51.141Z,11.35
2023-01-01T22:01:33.561Z,11.29
2023-01-01T22:04:06.461Z,11.29
2023-01-01T22:06:42.891Z,11.27
2023-01-01T22:09:26.893Z,11.22
2023-01-01T22:11:59.357Z,11.19
2023-01-01T22:14:32.105Z,11.23
2023-01-01T22:16:59.435Z,11.21
2023-01-01T22:19:33.201Z,11.22
2023-01-01T22:22:00.421Z,11.26
2023-01-01T22:24:35.531Z,11.24
2023-01-01T22:27:25.817Z,11.24
2023-01-01T22:29:52.851Z,11.26
2023-01-01T22:32:26.111Z,11.27
2023-01-01T22:35:14.757Z,11.28
2023-01-01T22:37:42.705Z,11.23
2023-01-01T22:40:26.304Z,11.21
2023-01-01T22:42:53.945Z,11.24
2023-01-01T22:45:20.857Z,11.23
2023-01-01T22:47:48.217Z,11.24
2023-01-01T22:50:21.740Z,11.22
2023-01-01T22:52:49.769Z,11.24
2023-01-01T22:55:17.361Z,11.34
2023-01-01T22:57:44.861Z,11.35
2023-01-01T23:00:16.385Z,11.36
2023-01-01T23:02:44.812Z,11.38
2023-01-01T23:05:11.999Z,11.45
2023-01-01T23:07:42.501Z,11.47
2023-01-01T23:10:13.728Z,11.48
2023-01-01T23:12:41.098Z,11.47
2023-01-01T23:15:26.864Z,11.49
2023-01-01T23:17:54.448Z,11.51
2023-01-01T23:20:21.454Z,11.54
2023-01-01T23:22:53.008Z,11.57
2023-01-01T23:25:21.133Z,11.59
2023-01-01T23:27:50.539Z,11.60
2023-01-01T23:30:17.629Z,11.60
2023-01-01T23:32:45.554Z,11.61
2023-01-01T23:35:12.625Z,11.65
2023-01-01T23:37:40.080Z,11.63
2023-01-01T23:40:07.943Z,11.58
2023-01-01T23:42:35.247Z,11.56
2023-01-01T23:45:02.138Z,11.60
2023-01-01T23:47:29.370Z,11.54
2023-01-01T23:49:56.338Z,11.53
2023-01-01T23:52:23.703Z,11.48
2023-01-01T23:54:50.616Z,11.43
2023-01-01T23:57:17.776Z,11.41
2023-01-01T23:59:44.679Z,11.41
